Nantucket, Massachusetts
Current Conditions -  °F | °C
As of 5:53 PM on Friday 28 Nov 2014 (Local Time) from KACK Reporting Station
Scattered Clouds Scattered Clouds  
Wind Chill: 24°   Ceiling: Unl
Heat Index: 34°   Visibility: 10mi
Dew Point: 19°   Wind: 16mph
Humidity: 54%   Direction: 310°NW
Pressure: 30.12"   Gusts: 24mph
Location:  41.28°N, 70.1°W
Report Text: KACK 282253Z 31014G21KT 10SM SCT043 01/M07 A3012 RMK AO2 SLP198 T00111072
Loading
Personal Weather Stations






























Interactive Weather Map New forecast layout! Learn more

10-Day Weather Forecast

Advertisements
Track Severe Weather on mobile